• Join FlightAware (Why Join?)
  • Login
  • US Flag 
04:29AM EDT


 

Airport Tracker/Info


-or-


 

Live Flight TrackerFlight Track Log ✈ AAL2345 ✈ 12-Jun-2013 ✈ KORD - KDFW

Flight Track Log - Related Links

Times and Time Zones

All times are in EDT time to prevent confusion due to time zone crossing. See the AAL2345 flight status page for this flight to view local times or setup timezone preferences in your user account.

Time Position Orientation Groundspeed Altitude Reporting Facility
EDT Latitude Longitude Course Direction KTS MPH feet Rate Location/Type
08:52PM 41.9500 -88.0167 243° Southwest 224 258 3,800  Level Chicago TRACON
08:54PM 41.8792 -88.3271 242° Southwest  Level FlightAware Approximate
08:54PM 41.8797 -88.0942 219° Southwest 271 312 7,800  Level Chicago Center
08:55PM 41.8371 -88.4648 255° West  Level FlightAware Approximate
08:55PM 41.8306 -88.1761 231° Southwest 254 292 11,000  Level Chicago Center
08:56PM 41.8057 -88.6085 254° West  Level FlightAware Approximate
08:56PM 41.8019 -88.2711 248° West 274 315 12,600  Level Chicago Center
08:57PM 41.7196 -88.7039 236° Southwest  Level Estimated
08:57PM 41.7672 -88.3756 246° West 305 351 14,600  Level Chicago Center
08:58PM 41.6334 -88.7990 243° Southwest  Level Estimated
08:58PM 41.7558 -88.4861 262° West 304 350 15,100  Level Chicago Center
08:59PM 41.7469 -88.6019 264° West 314 361 15,100  Level Chicago Center
09:00PM 41.7394 -88.7158 265° West 312 359 15,100 60 Level Chicago Center
09:01PM 41.7342 -88.8294 266° West 310 357 15,300 1,020 Climbing Chicago Center
09:02PM 41.7253 -88.9725 265° West 325 374 17,200 2,100 Climbing Chicago Center
09:03PM 41.7158 -89.1017 264° West 351 404 19,600 1,980 Climbing Chicago Center
09:04PM 41.7081 -89.2342 266° West 359 413 21,300 1,680 Climbing Chicago Center
09:05PM 41.6967 -89.3694 264° West 369 425 23,000 1,680 Climbing Chicago Center
09:06PM 41.6858 -89.5097 264° West 379 436 24,700 1,440 Climbing Chicago Center
09:07PM 41.6603 -89.6458 256° West 405 466 26,000 1,020 Climbing Chicago Center
09:08PM 41.6153 -89.7842 247° West 412 474 26,800 780 Climbing Chicago Center
09:09PM 41.5656 -89.9275 245° Southwest 426 490 27,700 900 Climbing Chicago Center
09:10PM 41.5139 -90.0789 246° West 445 512 28,700 1,140 Climbing Chicago Center
09:11PM 41.4625 -90.2308 246° West 452 520 30,000 1,200 Climbing Chicago Center
09:12PM 41.3925 -90.3717 237° Southwest 462 532 31,200 1,080 Climbing Chicago Center
09:13PM 41.2864 -90.5161 226° Southwest 464 534 32,300 1,140 Climbing Chicago Center
09:14PM 41.1997 -90.6367 226° Southwest 460 529 33,600 840 Climbing Chicago Center
09:15PM 41.1167 -90.7550 227° Southwest 447 514 34,000 180 Climbing Chicago Center
09:16PM 41.0314 -90.8736 226° Southwest 445 512 34,000  Level Chicago Center
09:17PM 40.9453 -90.9919 226° Southwest 447 514 34,000  Level Chicago Center
09:18PM 40.8594 -91.1092 226° Southwest 446 513 34,000  Level Chicago Center
09:19PM 40.7756 -91.2269 227° Southwest 444 511 34,000  Level Chicago Center
09:20PM 40.6936 -91.3372 226° Southwest 435 501 34,000  Level Chicago Center
09:21PM 40.6114 -91.4517 227° Southwest 433 498 34,000  Level Chicago Center
09:22PM 40.5281 -91.5647 226° Southwest 435 501 34,000  Level Chicago Center
09:23PM 40.4289 -91.6989 226° Southwest 429 494 34,000  Level Chicago Center
09:24PM 40.4122 -91.7206 225° Southwest 429 494 34,000  Level Kansas City Center
09:25PM 40.3117 -91.8558 226° Southwest 432 497 34,000  Level Kansas City Center
09:26PM 40.2278 -91.9650 225° Southwest 429 494 34,000  Level Kansas City Center
09:27PM 40.1286 -92.0567 215° Southwest 436 502 34,000  Level Kansas City Center
09:28PM 40.0347 -92.1542 219° Southwest 434 499 34,000  Level Kansas City Center
09:29PM 39.9383 -92.2506 217° Southwest 434 499 34,000  Level Kansas City Center
09:30PM 39.8439 -92.3464 218° Southwest 433 498 34,000  Level Kansas City Center
09:31PM 39.7494 -92.4411 218° Southwest 432 497 34,000  Level Kansas City Center
09:32PM 39.6350 -92.5544 217° Southwest 432 497 34,000  Level Kansas City Center
09:33PM 39.5414 -92.6486 218° Southwest 429 494 34,000  Level Kansas City Center
09:34PM 39.4478 -92.7431 218° Southwest 430 495 34,000  Level Kansas City Center
09:35PM 39.3522 -92.8372 217° Southwest 433 498 34,000  Level Kansas City Center
09:36PM 39.2572 -92.9303 217° Southwest 433 498 34,000  Level Kansas City Center
09:37PM 39.1617 -93.0264 218° Southwest 435 501 34,000  Level Kansas City Center
09:38PM 39.0472 -93.1378 217° Southwest 435 501 34,000  Level Kansas City Center
09:39PM 38.9439 -93.2375 217° Southwest 437 503 34,000  Level Kansas City Center
09:40PM 38.8469 -93.3317 217° Southwest 438 504 34,000  Level Kansas City Center
09:41PM 38.7492 -93.4256 217° Southwest 440 506 34,000  Level Kansas City Center
09:42PM 38.6544 -93.5181 217° Southwest 434 499 34,000  Level Kansas City Center
09:43PM 38.5578 -93.6108 217° Southwest 433 498 34,000  Level Kansas City Center
09:44PM 38.4586 -93.7050 217° Southwest 439 505 34,000  Level Kansas City Center
09:45PM 38.3594 -93.8000 217° Southwest 443 510 34,000  Level Kansas City Center
09:46PM 38.2414 -93.9131 217° Southwest 443 510 34,000  Level Kansas City Center
09:47PM 38.1422 -94.0069 217° Southwest 444 511 34,000  Level Kansas City Center
09:48PM 38.0372 -94.1058 217° Southwest 448 516 34,000  Level Kansas City Center
09:49PM 37.9400 -94.1969 216° Southwest 451 519 34,000  Level Kansas City Center
09:50PM 37.8389 -94.2908 216° Southwest 453 521 34,000  Level Kansas City Center
09:51PM 37.7392 -94.3850 217° Southwest 451 519 34,000  Level Kansas City Center
09:52PM 37.6211 -94.4975 217° Southwest 453 521 34,000  Level Kansas City Center
09:53PM 37.5208 -94.5889 216° Southwest 448 516 34,000  Level Kansas City Center
09:54PM 37.4189 -94.6806 216° Southwest 447 514 34,000  Level Kansas City Center
09:55PM 37.3158 -94.7764 216° Southwest 456 525 34,000  Level Kansas City Center
09:57PM 37.2158 -94.8717 217° Southwest 455 524 34,000  Level Kansas City Center
09:58PM 37.1139 -94.9622 215° Southwest 449 517 34,000  Level Kansas City Center
09:59PM 37.0122 -95.0547 216° Southwest 451 519 34,000  Level Kansas City Center
10:00PM 36.8700 -95.1169 199° South 461 531 34,000  Level Kansas City Center
10:01PM 36.7422 -95.1467 191° South 467 537 34,000  Level Kansas City Center
10:02PM 36.6164 -95.1847 194° South 464 534 34,000  Level Kansas City Center
10:03PM 36.4819 -95.2211 192° South 465 535 34,000  Level Kansas City Center
10:04PM 36.3536 -95.2561 192° South 470 541 34,000  Level Kansas City Center
10:05PM 36.2244 -95.2903 192° South 472 543 34,000  Level Kansas City Center
10:06PM 36.1008 -95.3267 193° South 467 537 34,000  Level Kansas City Center
10:07PM 35.9744 -95.3619 193° South 461 531 34,000  Level Kansas City Center
10:08PM 35.8511 -95.3967 193° South 454 522 34,000  Level Kansas City Center
10:09PM 35.7267 -95.4300 192° South 455 524 34,000  Level Kansas City Center
10:10PM 35.5725 -95.4589 189° South 469 540 34,100  Climbing Fort Worth Center
10:11PM 35.4467 -95.4236 167° South 453 521 34,000 -60 Descending Fort Worth Center
10:12PM 35.3192 -95.4011 172° South 465 535 34,000  Level Fort Worth Center
10:13PM 35.1958 -95.3786 172° South 465 535 34,000  Level Fort Worth Center
10:14PM 35.0722 -95.3536 171° South 465 535 34,000 -120 Level Fort Worth Center
10:15PM 34.9469 -95.3314 172° South 459 528 33,800 -720 Descending Fort Worth Center
10:16PM 34.8214 -95.3092 172° South 459 528 32,600 -1,200 Descending Fort Worth Center
10:17PM 34.6958 -95.2869 172° South 459 528 31,500 -1,020 Descending Fort Worth Center
10:18PM 34.5661 -95.2675 173° South 465 535 30,600 -1,200 Descending Fort Worth Center
10:19PM 34.4475 -95.2831 186° South 445 512 29,100 -1,440 Descending Fort Worth Center
10:20PM 34.3553 -95.3858 223° Southwest 419 482 27,800 -1,440 Descending Fort Worth Center
10:21PM 34.2608 -95.4836 221° Southwest 437 503 26,300 -1,260 Descending Fort Worth Center
10:22PM 34.1642 -95.5811 220° Southwest 450 518 25,300 -1,140 Descending Fort Worth Center
10:23PM 34.0819 -95.6681 221° Southwest 452 520 24,100 -1,200 Descending Fort Worth Center
10:24PM 33.9894 -95.7653 221° Southwest 447 514 22,900 -1,200 Descending Fort Worth Center
10:25PM 33.9008 -95.8619 222° Southwest 442 509 21,800 -1,500 Descending Fort Worth Center
10:26PM 33.7997 -95.9636 220° Southwest 437 503 19,900 -2,160 Descending Fort Worth Center
10:27PM 33.7131 -96.0550 221° Southwest 437 503 17,500 -2,160 Descending Fort Worth Center
10:28PM 33.6286 -96.1411 220° Southwest 420 483 15,600 -1,740 Descending Fort Worth Center
10:29PM 33.5500 -96.2244 221° Southwest 393 452 14,100 -1,740 Descending Fort Worth Center
10:30PM 33.4778 -96.3053 223° Southwest 372 428 12,200 -1,560 Descending Fort Worth Center
10:31PM 33.4117 -96.3856 225° Southwest 350 403 11,000 -1,140 Descending Fort Worth Center
10:32PM 33.3578 -96.4486 224° Southwest 321 369 10,000 -1,320 Descending Fort Worth Center
10:33PM 33.3189 -96.5433 244° Southwest 297 342 8,400 -1,560 Descending Fort Worth Center
10:34PM 33.2903 -96.6306 249° West 291 335 6,900 -1,440 Descending Fort Worth Center
10:35PM 33.2614 -96.7028 244° Southwest 276 318 5,600 -960 Descending Fort Worth Center
10:36PM 33.2097 -96.7753 230° Southwest 266 306 5,000 -300 Descending Fort Worth Center
10:37PM 33.1681 -96.8353 230° Southwest 261 300 5,000 -60 Level Fort Worth Center
10:38PM 33.1206 -96.9075 232° Southwest 253 291 4,900 -600 Descending Fort Worth Center
10:39PM 33.0833 -96.9500 224° Southwest 211 243 3,900 -1,080 Descending Dallas / Fort Worth TRACON